Maysville, Indiana
Current Conditions -  °F | °C
As of 4:55 PM on Thursday 20 Nov 2014 (Local Time) from KDCY Reporting Station
Clear Clear  
Wind Chill: 23°   Ceiling: Unl
Heat Index: 28°   Visibility: 10mi
Dew Point: 18°   Wind: 5mph
Humidity: 66%   Direction: 260°W
Pressure: 30.23"   Gusts: NA
Location:  38.6427°N, 87.1768°W
Report Text: KDCY 202255Z AUTO 26004KT 10SM CLR M02/M08 A3023 RMK AO2 T10211076
Loading
Personal Weather Stations






























Interactive Weather Map New forecast layout! Learn more

10-Day Weather Forecast

Advertisements
Track Severe Weather on mobile